Terminal Aerodrome Forecast
Issued by NWS

Home | Current Version | Previous Version | Text Only | Print | Product List | Glossary Off
Versions: 1 2 3 4 5 6 7 8 9 10 11 12 13 14 15 16

543
FTUS43 KTOP 150352 AAA
TAFMHK
TAF AMD
KMHK 150352Z 1504/1524 33007KT P6SM SCT025 BKN050
      TEMPO 1504/1506 BKN025
     FM150600 33006KT P6SM BKN040
     FM150800 27005KT P6SM SCT200
     FM151900 23012KT P6SM FEW250=

USA.gov is the U.S. government's official web portal to all federal, state and local government web resources and services.